Terminal Aerodrome Forecast
Issued by NWS Blacksburg, VA

Current Version | Previous Version | Graphics & Text | Print | Product List | Glossary On
Versions: 1 2 3 4 5 6 7 8 9 10 11 12 13 14 15 16 17 18 19 20 21 22 23 24 25 26
000
FTUS41 KRNK 030715 AAA
TAFBLF
TAF AMD
KBLF 030715Z 0307/0406 VRB04KT P6SM SCT015 OVC030
      TEMPO 0309/0312 3SM BR OVC015
     FM031200 30008KT P6SM VCSH OVC020
     FM040000 30006KT P6SM SCT007 BKN035=

USA.gov is the U.S. government's official web portal to all federal, state and local government web resources and services.